Time;durP1;ratioP1;P1;durP2;ratioP2;P2;SDS_P1;SDS_P2;PMS_P1;PMS_P2;Temp;Humidity;BMP_temperature;BMP_pressure;BME280_temperature;BME280_humidity;BME280_pressure;Samples;Min_cycle;Max_cycle;Signal;HPM_P1;HPM_P2
2023/01/03 00:01:56;;;;;;;61.80;31.60;;;;;;;;;;6273387;28;20020;-74
2023/01/03 00:04:56;;;;;;;59.17;29.07;;;;;;;;;;6252369;28;20570;-74
2023/01/03 00:07:56;;;;;;;55.93;29.77;;;;;;;;;;6269172;28;20021;-74
2023/01/03 00:10:56;;;;;;;53.60;26.38;;;;;;;;;;6254476;28;20079;-74
2023/01/03 00:13:57;;;;;;;50.95;23.33;;;;;;;;;;6271461;28;20083;-74
2023/01/03 00:16:58;;;;;;;56.73;25.93;;;;;;;;;;6271973;28;20027;-74
2023/01/03 00:19:58;;;;;;;59.72;29.63;;;;;;;;;;6272566;28;20044;-74
2023/01/03 00:23:00;;;;;;;53.27;28.17;;;;;;;;;;6272296;28;20379;-74
2023/01/03 00:26:07;;;;;;;57.38;25.50;;;;;;;;;;6273218;28;20550;-74
2023/01/03 00:29:08;;;;;;;48.03;27.77;;;;;;;;;;6269653;28;20549;-74
2023/01/03 00:32:09;;;;;;;51.37;24.93;;;;;;;;;;6264965;28;20025;-74
2023/01/03 00:35:09;;;;;;;55.20;25.57;;;;;;;;;;6271044;28;20037;-74
2023/01/03 00:38:09;;;;;;;56.60;30.07;;;;;;;;;;6271278;28;20485;-74
2023/01/03 00:41:10;;;;;;;50.83;27.05;;;;;;;;;;6253734;28;20078;-74
2023/01/03 00:44:11;;;;;;;48.65;25.15;;;;;;;;;;6269579;28;20021;-73
2023/01/03 00:47:11;;;;;;;48.83;23.50;;;;;;;;;;6272353;28;20028;-74
2023/01/03 00:50:11;;;;;;;43.80;21.85;;;;;;;;;;6272085;28;20391;-74
2023/01/03 00:53:11;;;;;;;41.55;22.80;;;;;;;;;;6273892;28;20083;-74
2023/01/03 00:56:13;;;;;;;44.17;23.38;;;;;;;;;;6270879;28;20448;-74
2023/01/03 00:59:14;;;;;;;49.13;23.38;;;;;;;;;;6270254;28;20028;-74
2023/01/03 01:02:14;;;;;;;41.22;21.13;;;;;;;;;;6272036;28;20025;-74
2023/01/03 01:05:14;;;;;;;38.57;17.90;;;;;;;;;;6268055;28;20393;-74
2023/01/03 01:08:15;;;;;;;46.03;23.63;;;;;;;;;;6267317;28;20033;-74
2023/01/03 01:11:16;;;;;;;44.70;23.55;;;;;;;;;;6267032;28;20032;-74
2023/01/03 01:14:19;;;;;;;41.72;23.88;;;;;;;;;;6270594;28;20412;-73
2023/01/03 01:17:20;;;;;;;41.47;22.92;;;;;;;;;;6270199;28;20892;-74
2023/01/03 01:20:20;;;;;;;35.30;18.98;;;;;;;;;;6271736;28;20033;-74
2023/01/03 01:23:20;;;;;;;40.57;22.23;;;;;;;;;;6270863;28;20104;-74
2023/01/03 01:26:22;;;;;;;49.27;23.10;;;;;;;;;;6270667;28;20017;-74
2023/01/03 01:29:23;;;;;;;48.30;23.58;;;;;;;;;;6270666;28;20392;-74
2023/01/03 01:32:23;;;;;;;45.60;23.13;;;;;;;;;;6270771;28;20031;-74
2023/01/03 01:35:23;;;;;;;47.60;23.33;;;;;;;;;;6269680;28;20017;-73
2023/01/03 01:38:24;;;;;;;43.22;22.40;;;;;;;;;;6269913;28;20028;-74
2023/01/03 01:44:46;;;;;;;41.80;22.45;;;;;;;;;;6271083;28;20052;-73
2023/01/03 01:47:58;;;;;;;47.25;23.85;;;;;;;;;;6257142;28;20027;-73
2023/01/03 01:50:59;;;;;;;47.40;24.77;;;;;;;;;;6270213;28;20021;-73
2023/01/03 01:54:00;;;;;;;52.80;23.90;;;;;;;;;;6268909;28;20025;-74
2023/01/03 01:57:01;;;;;;;36.42;21.73;;;;;;;;;;6269756;28;20172;-74
2023/01/03 02:00:01;;;;;;;50.43;23.13;;;;;;;;;;6270210;28;20029;-74
2023/01/03 02:03:01;;;;;;;44.30;23.10;;;;;;;;;;6269928;28;20071;-73
2023/01/03 02:06:03;;;;;;;43.83;23.40;;;;;;;;;;6264628;28;20018;-74
2023/01/03 02:09:04;;;;;;;54.83;23.40;;;;;;;;;;6274782;28;20539;-74
2023/01/03 02:15:47;;;;;;;40.60;22.10;;;;;;;;;;6273610;28;20029;-74
2023/01/03 02:18:56;;;;;;;46.03;25.02;;;;;;;;;;6273598;28;20061;-74
2023/01/03 02:21:59;;;;;;;46.08;22.27;;;;;;;;;;6251774;28;20017;-74
2023/01/03 02:25:12;;;;;;;45.58;22.92;;;;;;;;;;6267433;28;20049;-74
2023/01/03 02:28:27;;;;;;;51.80;24.73;;;;;;;;;;6252291;28;20017;-72
2023/01/03 02:31:33;;;;;;;83.28;35.55;;;;;;;;;;6273517;28;20052;-74
2023/01/03 02:34:45;;;;;;;91.18;41.72;;;;;;;;;;6275040;28;20017;-74
2023/01/03 02:38:05;;;;;;;63.75;29.73;;;;;;;;;;6274651;28;20025;-74
2023/01/03 02:41:05;;;;;;;62.88;31.90;;;;;;;;;;6273226;28;20603;-73
2023/01/03 02:44:12;;;;;;;57.93;29.13;;;;;;;;;;6273517;28;20024;-73
2023/01/03 02:47:13;;;;;;;48.22;25.63;;;;;;;;;;6270610;28;20489;-73
2023/01/03 02:50:14;;;;;;;49.70;24.40;;;;;;;;;;6252374;28;20025;-73
2023/01/03 02:53:18;;;;;;;44.28;24.02;;;;;;;;;;6256625;28;20366;-73
2023/01/03 02:56:27;;;;;;;46.45;25.77;;;;;;;;;;6274296;28;20021;-73
2023/01/03 02:59:41;;;;;;;50.58;27.27;;;;;;;;;;6274835;28;20085;-73
2023/01/03 03:02:48;;;;;;;54.38;26.98;;;;;;;;;;6268887;28;20021;-74
2023/01/03 03:05:51;;;;;;;48.17;25.17;;;;;;;;;;6252305;28;20103;-74
2023/01/03 03:08:51;;;;;;;51.30;26.45;;;;;;;;;;6274268;28;20028;-74
2023/01/03 03:15:12;;;;;;;54.42;29.58;;;;;;;;;;6273487;28;20032;-74
2023/01/03 03:18:18;;;;;;;65.22;35.78;;;;;;;;;;6268857;28;20045;-73
2023/01/03 03:24:50;;;;;;;53.10;28.95;;;;;;;;;;6266751;28;20029;-74
2023/01/03 03:31:17;;;;;;;43.50;22.92;;;;;;;;;;6270676;28;20124;-74
2023/01/03 03:34:25;;;;;;;41.47;24.05;;;;;;;;;;6272843;28;20519;-73
2023/01/03 03:37:26;;;;;;;43.42;22.63;;;;;;;;;;6271370;28;20028;-74
2023/01/03 03:47:15;;;;;;;48.78;26.60;;;;;;;;;;6274949;28;20037;-73
2023/01/03 03:50:26;;;;;;;48.33;23.00;;;;;;;;;;6273180;28;20044;-73
2023/01/03 03:53:27;;;;;;;42.53;22.52;;;;;;;;;;6233597;28;20029;-74
2023/01/03 03:56:30;;;;;;;49.22;23.27;;;;;;;;;;6268743;28;20012;-73
2023/01/03 03:59:32;;;;;;;44.60;23.80;;;;;;;;;;6274650;28;20104;-73
2023/01/03 04:02:33;;;;;;;52.08;26.52;;;;;;;;;;6273263;28;20021;-73
2023/01/03 04:05:36;;;;;;;47.15;23.85;;;;;;;;;;6271019;28;20384;-72
2023/01/03 04:08:36;;;;;;;60.13;27.55;;;;;;;;;;6269179;28;20032;-72
2023/01/03 04:11:36;;;;;;;57.10;26.23;;;;;;;;;;6273138;28;20037;-72
2023/01/03 04:14:37;;;;;;;44.72;26.60;;;;;;;;;;6272736;28;20036;-72
2023/01/03 04:17:37;;;;;;;62.43;27.03;;;;;;;;;;6272445;28;20009;-72
2023/01/03 04:20:37;;;;;;;47.40;19.40;;;;;;;;;;6274374;28;20075;-73
2023/01/03 04:23:37;;;;;;;45.72;24.55;;;;;;;;;;6253178;28;20028;-72
2023/01/03 04:26:37;;;;;;;49.33;25.13;;;;;;;;;;6272980;28;20385;-73
2023/01/03 04:29:39;;;;;;;49.63;24.27;;;;;;;;;;6272262;28;20021;-74
2023/01/03 04:32:39;;;;;;;50.72;25.70;;;;;;;;;;6271416;28;20017;-73
2023/01/03 04:35:39;;;;;;;51.20;25.05;;;;;;;;;;6270604;28;20044;-74
2023/01/03 04:38:39;;;;;;;49.03;25.37;;;;;;;;;;6251497;28;20033;-73
2023/01/03 04:41:40;;;;;;;48.70;24.57;;;;;;;;;;6269789;28;20040;-74
2023/01/03 04:44:40;;;;;;;39.20;18.20;;;;;;;;;;6271876;28;20033;-73
2023/01/03 04:47:40;;;;;;;45.00;22.13;;;;;;;;;;6271878;28;20025;-73
2023/01/03 04:50:40;;;;;;;50.00;25.70;;;;;;;;;;6272048;28;20017;-74
2023/01/03 04:53:40;;;;;;;46.70;24.95;;;;;;;;;;6271948;28;20103;-73
2023/01/03 04:56:40;;;;;;;52.93;24.83;;;;;;;;;;6255263;28;20036;-73
2023/01/03 04:59:41;;;;;;;56.00;28.05;;;;;;;;;;6252119;28;20025;-73
2023/01/03 05:02:41;;;;;;;53.53;26.70;;;;;;;;;;6271328;28;20021;-73
2023/01/03 05:05:41;;;;;;;49.92;25.73;;;;;;;;;;6262980;28;20009;-73
2023/01/03 05:08:46;;;;;;;49.83;23.88;;;;;;;;;;6271247;28;20017;-73
2023/01/03 05:11:46;;;;;;;50.25;23.50;;;;;;;;;;6272059;28;20017;-73
2023/01/03 05:14:46;;;;;;;40.45;21.77;;;;;;;;;;6271939;28;20452;-74
2023/01/03 05:17:46;;;;;;;47.00;22.15;;;;;;;;;;6272366;28;20053;-73
2023/01/03 05:27:24;;;;;;;32.95;16.17;;;;;;;;;;6271420;28;20029;-73
2023/01/03 05:30:24;;;;;;;33.87;17.43;;;;;;;;;;6269697;28;20416;-73
2023/01/03 05:33:25;;;;;;;39.13;17.67;;;;;;;;;;6268389;28;20029;-72
2023/01/03 05:36:25;;;;;;;40.00;19.83;;;;;;;;;;6271583;28;20031;-72
2023/01/03 05:39:25;;;;;;;39.23;19.80;;;;;;;;;;6270671;28;20021;-72
2023/01/03 05:42:25;;;;;;;37.73;19.70;;;;;;;;;;6269735;28;20020;-72
2023/01/03 05:45:26;;;;;;;39.60;18.67;;;;;;;;;;6271593;28;20009;-73
2023/01/03 05:48:26;;;;;;;33.27;18.13;;;;;;;;;;6269559;28;20464;-73
2023/01/03 05:51:26;;;;;;;48.07;18.70;;;;;;;;;;6270323;28;20544;-73
2023/01/03 05:54:27;;;;;;;38.92;20.08;;;;;;;;;;6268615;28;20033;-73
2023/01/03 05:57:27;;;;;;;50.60;20.10;;;;;;;;;;6270172;28;20485;-73
2023/01/03 06:00:27;;;;;;;39.23;20.27;;;;;;;;;;6266681;28;20021;-73
2023/01/03 06:03:27;;;;;;;42.97;20.87;;;;;;;;;;6268024;28;20055;-73
2023/01/03 06:06:28;;;;;;;40.28;18.48;;;;;;;;;;6265720;28;20017;-74
2023/01/03 06:09:28;;;;;;;45.63;20.07;;;;;;;;;;6268430;28;20033;-72
2023/01/03 06:12:28;;;;;;;44.03;23.23;;;;;;;;;;6268461;28;20021;-73
2023/01/03 06:15:28;;;;;;;46.97;22.77;;;;;;;;;;6267619;28;20029;-73
2023/01/03 06:18:28;;;;;;;51.15;24.25;;;;;;;;;;6245325;28;20041;-73
2023/01/03 06:21:29;;;;;;;40.47;20.70;;;;;;;;;;6266568;28;20104;-73
2023/01/03 06:24:29;;;;;;;49.10;23.47;;;;;;;;;;6270439;28;20024;-73
2023/01/03 06:27:29;;;;;;;43.85;21.35;;;;;;;;;;6269139;28;20078;-73
2023/01/03 06:30:29;;;;;;;45.70;22.90;;;;;;;;;;6268739;28;20040;-73
2023/01/03 06:33:29;;;;;;;55.72;26.90;;;;;;;;;;6268447;28;20067;-72
2023/01/03 06:36:33;;;;;;;60.67;28.48;;;;;;;;;;6266852;28;20049;-72
2023/01/03 06:39:33;;;;;;;52.10;26.45;;;;;;;;;;6268678;28;20031;-72
2023/01/03 06:42:41;;;;;;;59.87;26.90;;;;;;;;;;6266923;28;20021;-72
2023/01/03 06:55:39;;;;;;;64.32;30.60;;;;;;;;;;6268361;28;20463;-72
2023/01/03 06:58:39;;;;;;;72.90;35.27;;;;;;;;;;6270554;28;20056;-72
2023/01/03 07:01:39;;;;;;;70.43;38.55;;;;;;;;;;6271789;28;20021;-71
2023/01/03 07:04:39;;;;;;;61.90;32.53;;;;;;;;;;6266300;28;20028;-72
2023/01/03 07:07:40;;;;;;;70.23;35.53;;;;;;;;;;6270665;28;20025;-72
2023/01/03 07:10:40;;;;;;;79.73;38.20;;;;;;;;;;6253058;28;20025;-72
2023/01/03 07:13:58;;;;;;;89.88;46.20;;;;;;;;;;6273357;28;20015;-71
2023/01/03 07:16:58;;;;;;;114.00;55.20;;;;;;;;;;6266737;28;20029;-72
2023/01/03 07:19:58;;;;;;;122.90;59.80;;;;;;;;;;6271149;28;20607;-71
2023/01/03 07:22:59;;;;;;;110.68;53.55;;;;;;;;;;6272148;28;20009;-72
2023/01/03 07:25:59;;;;;;;108.77;59.07;;;;;;;;;;6272141;28;20024;-72
2023/01/03 07:29:00;;;;;;;85.65;47.20;;;;;;;;;;6254702;28;20013;-72
2023/01/03 07:32:00;;;;;;;80.25;38.78;;;;;;;;;;6270474;28;20021;-72
2023/01/03 07:35:01;;;;;;;57.83;31.20;;;;;;;;;;6270812;28;20064;-72
2023/01/03 07:38:01;;;;;;;62.50;28.67;;;;;;;;;;6252596;28;20024;-73
2023/01/03 07:41:02;;;;;;;55.87;29.60;;;;;;;;;;6269920;28;20384;-72
2023/01/03 07:44:02;;;;;;;61.87;32.60;;;;;;;;;;6269215;28;20013;-72
2023/01/03 07:47:02;;;;;;;50.10;25.87;;;;;;;;;;6271346;28;20815;-72
2023/01/03 07:50:02;;;;;;;43.50;18.98;;;;;;;;;;6270818;28;20538;-72
2023/01/03 07:53:03;;;;;;;44.30;21.83;;;;;;;;;;6246498;28;20031;-72
2023/01/03 07:56:07;;;;;;;37.27;21.13;;;;;;;;;;6268420;28;20124;-72
2023/01/03 07:59:08;;;;;;;37.75;19.58;;;;;;;;;;6271993;28;20025;-72
2023/01/03 08:02:08;;;;;;;39.08;20.35;;;;;;;;;;6269789;28;20714;-72
2023/01/03 08:05:08;;;;;;;35.92;18.50;;;;;;;;;;6270910;28;20048;-72
2023/01/03 08:08:09;;;;;;;41.20;18.60;;;;;;;;;;6254165;28;20012;-72
2023/01/03 08:14:29;;;;;;;62.30;27.50;;;;;;;;;;6268507;28;20547;-72
2023/01/03 08:17:30;;;;;;;41.75;20.25;;;;;;;;;;6266392;28;20031;-73
2023/01/03 08:20:30;;;;;;;73.93;31.15;;;;;;;;;;6270046;28;20070;-73
2023/01/03 08:23:30;;;;;;;34.40;17.43;;;;;;;;;;6271597;28;20028;-72
2023/01/03 08:26:30;;;;;;;37.55;19.52;;;;;;;;;;6248676;28;20480;-72
2023/01/03 08:29:30;;;;;;;41.30;21.33;;;;;;;;;;6269645;28;20063;-72
2023/01/03 08:32:32;;;;;;;34.87;16.80;;;;;;;;;;6269138;28;20017;-72
2023/01/03 08:35:33;;;;;;;29.35;14.50;;;;;;;;;;6267893;28;20469;-72
2023/01/03 08:38:35;;;;;;;26.92;12.90;;;;;;;;;;6262426;28;20091;-73
2023/01/03 08:41:35;;;;;;;;;;;;;;;;;;6268555;28;20024;-72
2023/01/03 08:44:36;;;;;;;22.05;13.48;;;;;;;;;;6267874;28;19905;-72
2023/01/03 08:47:36;;;;;;;17.93;8.83;;;;;;;;;;6269863;28;20396;-72
2023/01/03 08:50:37;;;;;;;24.23;15.07;;;;;;;;;;6268369;28;20012;-72
2023/01/03 08:53:37;;;;;;;21.30;12.40;;;;;;;;;;6270674;28;20023;-72
2023/01/03 08:56:38;;;;;;;27.97;14.27;;;;;;;;;;6269573;28;20044;-72
2023/01/03 08:59:38;;;;;;;23.35;11.50;;;;;;;;;;6267364;28;20024;-72
2023/01/03 09:02:39;;;;;;;23.50;12.90;;;;;;;;;;6269077;28;20032;-72
2023/01/03 09:05:39;;;;;;;22.57;12.00;;;;;;;;;;6268897;28;20051;-72
2023/01/03 09:08:39;;;;;;;20.30;11.02;;;;;;;;;;6244393;28;20029;-71
2023/01/03 09:11:39;;;;;;;19.03;10.87;;;;;;;;;;6275130;28;20220;-72
2023/01/03 09:14:39;;;;;;;19.77;11.30;;;;;;;;;;6251965;28;20128;-72
2023/01/03 09:17:44;;;;;;;17.45;9.52;;;;;;;;;;6268792;28;20044;-71
2023/01/03 09:20:44;;;;;;;16.35;8.35;;;;;;;;;;6270244;28;20024;-71
2023/01/03 09:23:44;;;;;;;17.67;9.93;;;;;;;;;;6270105;28;20025;-71
2023/01/03 09:26:44;;;;;;;18.88;8.88;;;;;;;;;;6263477;28;20017;-72
2023/01/03 09:29:45;;;;;;;17.33;8.45;;;;;;;;;;6269402;28;20461;-72
2023/01/03 09:32:48;;;;;;;21.87;11.43;;;;;;;;;;6263737;28;20063;-71
2023/01/03 09:35:50;;;;;;;17.52;10.93;;;;;;;;;;6251918;28;20020;-72
2023/01/03 09:38:50;;;;;;;20.20;10.75;;;;;;;;;;6268666;28;20394;-71
2023/01/03 09:43:11;;;;;;;15.33;9.00;;;;;;;;;;6265482;28;20024;-72
2023/01/03 09:45:13;;;;;;;20.30;11.07;;;;;;;;;;6262995;28;20481;-71
2023/01/03 09:48:15;;;;;;;15.18;8.25;;;;;;;;;;6270362;28;20084;-71
2023/01/03 10:04:48;;;;;;;16.30;9.48;;;;;;;;;;6268148;28;20021;-71
2023/01/03 10:08:07;;;;;;;17.67;9.63;;;;;;;;;;6269070;28;20092;-71
2023/01/03 10:11:08;;;;;;;19.83;9.52;;;;;;;;;;6266570;28;20090;-72
2023/01/03 10:14:18;;;;;;;17.38;9.45;;;;;;;;;;6267954;28;20015;-71
2023/01/03 10:17:21;;;;;;;14.77;8.30;;;;;;;;;;6269722;28;20075;-72
2023/01/03 10:20:22;;;;;;;20.95;11.20;;;;;;;;;;6267528;28;20067;-72
2023/01/03 10:23:22;;;;;;;16.00;8.73;;;;;;;;;;6268960;28;20016;-72
2023/01/03 10:26:25;;;;;;;23.90;13.67;;;;;;;;;;6267936;28;20021;-73
2023/01/03 10:29:26;;;;;;;26.77;14.35;;;;;;;;;;6272355;28;20029;-72
2023/01/03 10:32:45;;;;;;;20.17;11.43;;;;;;;;;;6272400;28;20451;-71
2023/01/03 10:35:45;;;;;;;22.30;11.05;;;;;;;;;;6270666;28;20028;-73
2023/01/03 10:38:45;;;;;;;30.33;15.37;;;;;;;;;;6273660;28;20496;-72
2023/01/03 10:41:47;;;;;;;23.93;12.57;;;;;;;;;;6272892;28;20025;-72
2023/01/03 10:44:59;;;;;;;36.05;17.30;;;;;;;;;;6274355;28;20017;-72
2023/01/03 10:48:00;;;;;;;36.67;19.30;;;;;;;;;;6251882;28;20067;-72
2023/01/03 10:51:02;;;;;;;19.30;10.97;;;;;;;;;;6274157;28;20477;-72
2023/01/03 10:54:20;;;;;;;20.67;8.98;;;;;;;;;;6274121;28;20052;-72
2023/01/03 10:57:38;;;;;;;15.32;9.20;;;;;;;;;;6269372;28;20140;-72
2023/01/03 11:00:38;;;;;;;11.88;6.93;;;;;;;;;;6242153;28;20041;-72
2023/01/03 11:03:43;;;;;;;8.20;4.20;;;;;;;;;;6273120;28;20025;-72
2023/01/03 11:06:56;;;;;;;6.50;3.50;;;;;;;;;;6272446;28;20400;-72
2023/01/03 11:09:57;;;;;;;9.65;5.15;;;;;;;;;;6268616;28;20022;-72
2023/01/03 11:12:57;;;;;;;7.83;4.60;;;;;;;;;;6247919;28;20051;-72
2023/01/03 11:15:58;;;;;;;8.47;3.50;;;;;;;;;;6270206;28;20520;-73
2023/01/03 11:19:00;;;;;;;9.15;4.47;;;;;;;;;;6270112;28;20135;-72
2023/01/03 11:22:03;;;;;;;6.97;4.15;;;;;;;;;;6270537;28;20159;-72
2023/01/03 11:25:13;;;;;;;5.45;3.42;;;;;;;;;;6249105;28;20556;-72
2023/01/03 11:28:19;;;;;;;10.02;3.97;;;;;;;;;;6268392;28;20048;-72
2023/01/03 11:31:19;;;;;;;8.52;4.45;;;;;;;;;;6271729;28;20036;-72
2023/01/03 11:34:45;;;;;;;8.55;4.45;;;;;;;;;;6269547;28;20025;-72
2023/01/03 11:38:04;;;;;;;7.82;4.35;;;;;;;;;;6270419;28;20025;-72
2023/01/03 11:41:20;;;;;;;6.82;4.80;;;;;;;;;;6271850;28;20123;-72
2023/01/03 11:44:21;;;;;;;7.20;4.50;;;;;;;;;;6272227;28;20025;-72
2023/01/03 11:47:33;;;;;;;12.20;5.87;;;;;;;;;;6271879;28;20139;-72
2023/01/03 11:50:33;;;;;;;17.30;7.32;;;;;;;;;;6270937;28;20338;-71
2023/01/03 11:53:35;;;;;;;12.68;6.80;;;;;;;;;;6250689;28;20028;-72
2023/01/03 11:56:35;;;;;;;;;;;;;;;;;;6271961;28;20029;-72
2023/01/03 11:59:55;;;;;;;25.90;12.82;;;;;;;;;;6272001;28;19997;-71
2023/01/03 12:03:00;;;;;;;19.70;9.95;;;;;;;;;;6267299;28;20028;-72
2023/01/03 12:06:19;;;;;;;14.98;7.68;;;;;;;;;;6265450;28;20039;-71
2023/01/03 12:09:24;;;;;;;14.50;7.85;;;;;;;;;;6271324;28;20427;-71
2023/01/03 12:12:27;;;;;;;20.65;9.93;;;;;;;;;;6268569;28;20485;-71
2023/01/03 12:15:33;;;;;;;13.10;7.97;;;;;;;;;;6271533;28;20037;-71
2023/01/03 12:18:41;;;;;;;10.75;6.20;;;;;;;;;;6270693;28;20036;-72
2023/01/03 12:21:47;;;;;;;12.55;6.13;;;;;;;;;;6269910;28;20091;-71
2023/01/03 12:24:58;;;;;;;11.57;6.05;;;;;;;;;;6271560;28;20048;-71
2023/01/03 12:28:21;;;;;;;10.32;5.18;;;;;;;;;;6270360;28;20075;-71
2023/01/03 12:31:33;;;;;;;11.40;5.57;;;;;;;;;;6247823;28;20363;-71
2023/01/03 12:34:41;;;;;;;11.88;5.60;;;;;;;;;;6268396;28;20372;-71
2023/01/03 12:37:44;;;;;;;10.30;5.70;;;;;;;;;;6268275;28;20021;-71
2023/01/03 12:40:47;;;;;;;10.48;4.85;;;;;;;;;;6269970;28;20016;-71
2023/01/03 12:43:53;;;;;;;7.50;4.57;;;;;;;;;;6271675;28;20021;-71
2023/01/03 12:46:54;;;;;;;6.95;4.30;;;;;;;;;;6248731;28;20540;-72
2023/01/03 12:50:24;;;;;;;9.65;4.72;;;;;;;;;;6269626;28;20024;-71
2023/01/03 12:53:36;;;;;;;10.60;4.90;;;;;;;;;;6250788;28;20037;-71
2023/01/03 12:56:39;;;;;;;14.63;7.15;;;;;;;;;;6265246;28;20028;-71
2023/01/03 12:59:58;;;;;;;13.73;6.78;;;;;;;;;;6269139;28;20025;-71
2023/01/03 13:03:01;;;;;;;11.48;5.15;;;;;;;;;;6269834;28;20052;-71
2023/01/03 13:06:04;;;;;;;15.32;6.35;;;;;;;;;;6264027;28;20114;-71
2023/01/03 13:09:07;;;;;;;9.65;4.50;;;;;;;;;;6250526;28;20501;-72
2023/01/03 13:12:12;;;;;;;11.00;6.72;;;;;;;;;;6251495;28;20028;-71
2023/01/03 13:15:21;;;;;;;13.38;5.45;;;;;;;;;;6269741;28;20477;-73
2023/01/03 13:18:22;;;;;;;9.45;5.20;;;;;;;;;;6264700;28;20412;-72
2023/01/03 13:21:41;;;;;;;10.40;4.65;;;;;;;;;;6267222;28;20114;-73
2023/01/03 13:24:46;;;;;;;12.50;5.35;;;;;;;;;;6268946;28;20091;-72
2023/01/03 13:27:49;;;;;;;11.05;5.50;;;;;;;;;;6268509;28;20017;-72
2023/01/03 13:31:10;;;;;;;9.52;5.15;;;;;;;;;;6267737;28;20104;-72
2023/01/03 13:34:30;;;;;;;14.70;6.20;;;;;;;;;;6264145;28;20482;-72
2023/01/03 13:37:57;;;;;;;13.48;7.00;;;;;;;;;;6255940;28;20033;-72
2023/01/03 13:41:01;;;;;;;17.10;6.45;;;;;;;;;;6260771;28;20033;-73
2023/01/03 13:44:16;;;;;;;21.00;10.75;;;;;;;;;;6271884;28;20025;-72
2023/01/03 13:47:21;;;;;;;40.17;18.13;;;;;;;;;;6233568;28;20045;-73
2023/01/03 13:50:30;;;;;;;47.50;23.27;;;;;;;;;;6250305;28;20021;-73
2023/01/03 13:53:35;;;;;;;41.17;19.48;;;;;;;;;;6268744;28;20033;-73
2023/01/03 13:56:41;;;;;;;45.83;21.83;;;;;;;;;;6267320;28;20028;-73
2023/01/03 13:59:43;;;;;;;72.75;33.33;;;;;;;;;;6271450;28;20325;-76
2023/01/03 14:02:58;;;;;;;58.90;29.83;;;;;;;;;;6272441;28;20373;-73
2023/01/03 14:06:29;;;;;;;39.83;21.10;;;;;;;;;;6253999;28;20020;-73
2023/01/03 14:09:51;;;;;;;59.78;27.05;;;;;;;;;;6275192;28;20029;-73
2023/01/03 14:13:10;;;;;;;50.85;23.58;;;;;;;;;;6273541;28;20033;-74
2023/01/03 14:16:16;;;;;;;34.20;15.90;;;;;;;;;;6278454;28;20491;-73
2023/01/03 14:19:19;;;;;;;41.50;18.52;;;;;;;;;;6273239;28;20045;-72
2023/01/03 14:22:36;;;;;;;40.90;18.95;;;;;;;;;;6275775;28;20040;-72
2023/01/03 14:25:37;;;;;;;34.05;15.75;;;;;;;;;;6272195;28;20025;-72
2023/01/03 14:28:38;;;;;;;44.45;24.67;;;;;;;;;;6277317;28;20028;-72
2023/01/03 14:31:43;;;;;;;49.07;23.67;;;;;;;;;;6271305;28;20010;-73
2023/01/03 14:34:43;;;;;;;19.55;10.48;;;;;;;;;;6273305;28;20017;-72
2023/01/03 14:37:45;;;;;;;21.08;10.52;;;;;;;;;;6282201;28;20027;-72
2023/01/03 14:40:45;;;;;;;21.20;11.15;;;;;;;;;;6272631;28;20063;-72
2023/01/03 14:43:46;;;;;;;13.33;6.17;;;;;;;;;;6270829;28;20016;-73
2023/01/03 14:46:52;;;;;;;19.93;11.63;;;;;;;;;;6255568;28;20024;-72
2023/01/03 14:49:52;;;;;;;14.32;7.43;;;;;;;;;;6276896;28;20078;-73
2023/01/03 14:52:56;;;;;;;15.43;7.67;;;;;;;;;;6272646;28;20025;-73
2023/01/03 14:55:56;;;;;;;14.95;7.75;;;;;;;;;;6276750;28;20488;-73
2023/01/03 14:58:57;;;;;;;19.87;10.10;;;;;;;;;;6273559;28;20041;-73
2023/01/03 15:01:57;;;;;;;18.80;10.87;;;;;;;;;;6274407;28;20856;-72
2023/01/03 15:05:00;;;;;;;24.50;11.47;;;;;;;;;;6276534;28;20017;-72
2023/01/03 15:08:19;;;;;;;19.23;9.80;;;;;;;;;;6274712;28;20084;-72
2023/01/03 15:11:23;;;;;;;20.30;9.55;;;;;;;;;;6268311;28;20496;-72
2023/01/03 15:14:24;;;;;;;16.00;8.27;;;;;;;;;;6271517;28;20392;-72
2023/01/03 15:17:24;;;;;;;17.15;10.07;;;;;;;;;;6272556;28;20009;-72
2023/01/03 15:20:42;;;;;;;30.13;18.73;;;;;;;;;;6249616;28;20353;-72
2023/01/03 15:23:46;;;;;;;26.90;14.48;;;;;;;;;;6270270;28;20690;-72
2023/01/03 15:26:47;;;;;;;24.77;14.65;;;;;;;;;;6271484;28;20013;-73
2023/01/03 15:29:47;;;;;;;24.60;15.98;;;;;;;;;;6272089;28;20464;-72
2023/01/03 15:33:01;;;;;;;31.37;17.90;;;;;;;;;;6269804;28;20021;-72
2023/01/03 15:36:06;;;;;;;30.45;17.58;;;;;;;;;;6268839;28;20052;-72
2023/01/03 15:39:08;;;;;;;36.35;22.98;;;;;;;;;;6269928;28;20515;-72
2023/01/03 15:45:37;;;;;;;59.20;33.45;;;;;;;;;;6271310;28;20029;-72
2023/01/03 15:48:37;;;;;;;53.67;27.20;;;;;;;;;;6244738;28;20018;-72
2023/01/03 15:51:37;;;;;;;50.20;28.50;;;;;;;;;;6270927;28;20138;-72
2023/01/03 15:54:38;;;;;;;45.83;25.63;;;;;;;;;;6247123;28;20025;-72
2023/01/03 15:57:38;;;;;;;39.50;24.37;;;;;;;;;;6271043;28;20021;-72
2023/01/03 16:00:38;;;;;;;57.87;29.23;;;;;;;;;;6271586;28;20021;-72
2023/01/03 16:03:39;;;;;;;121.23;57.17;;;;;;;;;;6271324;28;20017;-71
2023/01/03 16:06:39;;;;;;;80.53;45.37;;;;;;;;;;6270944;28;20013;-72
2023/01/03 16:09:39;;;;;;;49.05;30.92;;;;;;;;;;6265462;28;20373;-73
2023/01/03 16:12:40;;;;;;;47.03;22.80;;;;;;;;;;6270055;28;20028;-73
2023/01/03 16:15:42;;;;;;;49.17;27.42;;;;;;;;;;6270234;28;20052;-72
2023/01/03 16:18:47;;;;;;;62.22;34.20;;;;;;;;;;6267285;28;20064;-72
2023/01/03 16:21:49;;;;;;;48.90;27.88;;;;;;;;;;6268240;28;20504;-73
2023/01/03 16:24:49;;;;;;;49.92;26.77;;;;;;;;;;6269578;28;20067;-72
2023/01/03 16:27:49;;;;;;;54.15;27.23;;;;;;;;;;6267235;28;20501;-72
2023/01/03 16:31:00;;;;;;;109.70;50.47;;;;;;;;;;6269152;28;20013;-72
2023/01/03 16:34:01;;;;;;;85.05;45.17;;;;;;;;;;6251110;28;20009;-72
2023/01/03 16:37:02;;;;;;;63.25;35.00;;;;;;;;;;6254142;28;20021;-73
2023/01/03 16:40:02;;;;;;;67.85;38.75;;;;;;;;;;6239869;28;20020;-72
2023/01/03 16:43:02;;;;;;;88.30;47.50;;;;;;;;;;6270019;28;20013;-72
2023/01/03 16:46:02;;;;;;;182.95;84.72;;;;;;;;;;6252719;28;20040;-72
2023/01/03 16:49:03;;;;;;;125.43;68.27;;;;;;;;;;6271102;28;20018;-72
2023/01/03 16:52:04;;;;;;;201.70;99.03;;;;;;;;;;6269620;28;20399;-72
2023/01/03 16:55:11;;;;;;;170.47;84.30;;;;;;;;;;6267273;28;20023;-73
2023/01/03 16:58:14;;;;;;;117.63;60.95;;;;;;;;;;6270197;28;20263;-73
2023/01/03 17:01:14;;;;;;;199.35;96.60;;;;;;;;;;6268027;28;20064;-72
2023/01/03 17:04:15;;;;;;;109.93;63.43;;;;;;;;;;6269829;28;20028;-73
2023/01/03 17:07:17;;;;;;;81.30;47.33;;;;;;;;;;6271313;28;20108;-72
2023/01/03 17:10:35;;;;;;;149.00;69.28;;;;;;;;;;6270097;28;20087;-72
2023/01/03 17:13:39;;;;;;;210.48;93.68;;;;;;;;;;6266672;28;20025;-72
2023/01/03 17:16:40;;;;;;;252.38;104.57;;;;;;;;;;6263320;28;20366;-72
2023/01/03 17:19:40;;;;;;;199.25;98.00;;;;;;;;;;6267722;28;20044;-72
2023/01/03 17:22:48;;;;;;;165.93;84.30;;;;;;;;;;6266380;28;20056;-72
2023/01/03 17:25:48;;;;;;;153.52;79.38;;;;;;;;;;6269094;28;20024;-73
2023/01/03 17:28:49;;;;;;;157.90;76.43;;;;;;;;;;6263587;28;20025;-73
2023/01/03 17:31:49;;;;;;;121.10;57.73;;;;;;;;;;6268211;28;20029;-73
2023/01/03 17:34:50;;;;;;;149.03;72.27;;;;;;;;;;6267938;28;20331;-73
2023/01/03 17:37:50;;;;;;;164.38;79.72;;;;;;;;;;6247170;28;20024;-72
2023/01/03 17:40:51;;;;;;;185.20;88.20;;;;;;;;;;6269527;28;20104;-72
2023/01/03 17:43:52;;;;;;;188.57;92.43;;;;;;;;;;6267868;28;20017;-72
2023/01/03 17:50:11;;;;;;;213.27;110.53;;;;;;;;;;6267805;28;20024;-72
2023/01/03 17:53:13;;;;;;;244.37;120.70;;;;;;;;;;6270793;28;20071;-72
2023/01/03 17:56:14;;;;;;;318.15;153.18;;;;;;;;;;6269217;28;20059;-72
2023/01/03 17:59:14;;;;;;;329.92;171.70;;;;;;;;;;6267625;28;20032;-73
2023/01/03 18:02:16;;;;;;;354.80;171.00;;;;;;;;;;6262224;28;20552;-72
2023/01/03 18:05:18;;;;;;;301.48;152.68;;;;;;;;;;6266833;28;20107;-72
2023/01/03 18:08:18;;;;;;;;;;;;;;;;;;6244601;28;20547;-73
2023/01/03 18:11:20;;;;;;;276.85;144.75;;;;;;;;;;6245329;28;20364;-73
2023/01/03 18:14:20;;;;;;;278.33;146.55;;;;;;;;;;6268602;28;20021;-73
2023/01/03 18:17:28;;;;;;;278.87;161.10;;;;;;;;;;6268207;28;20028;-72
2023/01/03 18:20:29;;;;;;;807.30;432.13;;;;;;;;;;6242137;28;20108;-73
2023/01/03 18:23:31;;;;;;;977.33;512.42;;;;;;;;;;6244069;28;20369;-73
2023/01/03 18:26:33;;;;;;;512.83;302.02;;;;;;;;;;6265038;28;20039;-72
2023/01/03 18:29:33;;;;;;;341.73;167.95;;;;;;;;;;6266730;28;20050;-73
2023/01/03 18:32:33;;;;;;;356.97;175.70;;;;;;;;;;6265582;28;20565;-74
2023/01/03 18:35:33;;;;;;;365.98;180.45;;;;;;;;;;6267829;28;20016;-73
2023/01/03 18:38:40;;;;;;;388.30;204.80;;;;;;;;;;6267725;28;20032;-72
2023/01/03 18:41:40;;;;;;;365.83;189.45;;;;;;;;;;6247810;28;20009;-72
2023/01/03 18:44:40;;;;;;;287.00;161.70;;;;;;;;;;6265160;28;20488;-72
2023/01/03 18:47:41;;;;;;;205.40;113.87;;;;;;;;;;6267608;28;20036;-73
2023/01/03 18:50:41;;;;;;;201.17;110.53;;;;;;;;;;6270560;28;20507;-73
2023/01/03 18:53:42;;;;;;;204.30;108.27;;;;;;;;;;6269775;28;20059;-73